createdAt,value
2018-03-28T00:00:33.578Z,94718
2018-03-28T00:03:01.660Z,94708
2018-03-28T00:05:29.699Z,94720
2018-03-28T00:07:57.768Z,94721
2018-03-28T00:10:25.822Z,94717
2018-03-28T00:12:53.894Z,94712
2018-03-28T00:15:21.946Z,94713
2018-03-28T00:17:50.638Z,94718
2018-03-28T00:20:18.702Z,94706
2018-03-28T00:22:46.786Z,94724
2018-03-28T00:25:14.850Z,94711
2018-03-28T00:27:42.929Z,94713
2018-03-28T00:30:11.010Z,94715
2018-03-28T00:32:39.074Z,94706
2018-03-28T00:35:07.142Z,94705
2018-03-28T00:37:35.228Z,94694
2018-03-28T00:40:03.295Z,94699
2018-03-28T00:42:31.403Z,94685
2018-03-28T00:44:59.566Z,94682
2018-03-28T00:47:27.621Z,94681
2018-03-28T00:49:55.711Z,94682
2018-03-28T00:52:23.771Z,94666
2018-03-28T00:54:51.891Z,94676
2018-03-28T00:57:20.022Z,94658
2018-03-28T00:59:48.081Z,94658
2018-03-28T01:02:16.901Z,94659
2018-03-28T01:04:44.973Z,94666
2018-03-28T01:07:13.061Z,94663
2018-03-28T01:09:41.146Z,94666
2018-03-28T01:12:09.201Z,94658
2018-03-28T01:14:37.252Z,94653
2018-03-28T01:17:06.083Z,94666
2018-03-28T01:19:34.166Z,94654
2018-03-28T01:22:02.253Z,94649
2018-03-28T01:24:30.317Z,94653
2018-03-28T01:26:58.377Z,94637
2018-03-28T01:29:26.442Z,94644
2018-03-28T01:31:54.501Z,94633
2018-03-28T01:34:23.330Z,94635
2018-03-28T01:36:53.166Z,94641
2018-03-28T01:39:22.079Z,94628
2018-03-28T01:41:50.134Z,94618
2018-03-28T01:44:18.210Z,94619
2018-03-28T01:46:46.266Z,94617
2018-03-28T01:49:14.367Z,94626
2018-03-28T01:51:42.427Z,94607
2018-03-28T01:54:10.482Z,94602
2018-03-28T01:56:38.541Z,94623
2018-03-28T01:59:07.370Z,94615
2018-03-28T02:01:35.432Z,94602
2018-03-28T02:04:03.522Z,94604
2018-03-28T02:06:31.579Z,94594
2018-03-28T02:09:00.402Z,94589
2018-03-28T02:11:28.478Z,94590
2018-03-28T02:13:56.583Z,94589
2018-03-28T02:16:26.146Z,94594
2018-03-28T02:18:54.212Z,94596
2018-03-28T02:21:22.686Z,94580
2018-03-28T02:23:52.638Z,94583
2018-03-28T02:26:20.729Z,94575
2018-03-28T02:28:48.793Z,94580
2018-03-28T02:31:16.855Z,94579
2018-03-28T02:33:44.959Z,94571
2018-03-28T02:36:13.014Z,94582
2018-03-28T02:38:41.079Z,94568
2018-03-28T02:41:09.127Z,94567
2018-03-28T02:43:37.979Z,94562
2018-03-28T02:46:06.044Z,94562
2018-03-28T02:48:34.746Z,94572
2018-03-28T02:51:02.810Z,94561
2018-03-28T02:53:30.929Z,94559
2018-03-28T02:55:59.864Z,94553
2018-03-28T02:58:27.978Z,94554
2018-03-28T03:00:56.074Z,94556
2018-03-28T03:03:24.195Z,94557
2018-03-28T03:05:52.297Z,94554
2018-03-28T03:08:20.363Z,94556
2018-03-28T03:10:48.458Z,94554
2018-03-28T03:13:16.529Z,94554
2018-03-28T03:15:44.600Z,94554
2018-03-28T03:18:12.658Z,94560
2018-03-28T03:20:40.725Z,94562
2018-03-28T03:23:08.773Z,94565
2018-03-28T03:25:37.610Z,94546
2018-03-28T03:28:05.667Z,94556
2018-03-28T03:30:34.406Z,94549
2018-03-28T03:33:02.462Z,94548
2018-03-28T03:35:30.542Z,94550
2018-03-28T03:37:58.621Z,94545
2018-03-28T03:40:26.822Z,94547
2018-03-28T03:42:54.905Z,94551
2018-03-28T03:45:23.857Z,94550
2018-03-28T03:47:52.270Z,94546
2018-03-28T03:50:20.322Z,94555
2018-03-28T03:52:48.430Z,94551
2018-03-28T03:55:16.548Z,94548
2018-03-28T03:57:44.617Z,94550
2018-03-28T04:00:13.445Z,94557
2018-03-28T04:02:42.398Z,94533
2018-03-28T04:05:10.490Z,94545
2018-03-28T04:07:38.558Z,94541
2018-03-28T04:10:07.378Z,94537
2018-03-28T04:12:35.470Z,94537
2018-03-28T04:15:03.521Z,94541
2018-03-28T04:17:31.591Z,94539
2018-03-28T04:19:59.634Z,94537
2018-03-28T04:22:28.462Z,94543
2018-03-28T04:24:56.547Z,94551
2018-03-28T04:27:24.620Z,94555
2018-03-28T04:29:54.210Z,94552
2018-03-28T04:32:24.179Z,94551
2018-03-28T04:34:53.779Z,94525
2018-03-28T04:37:21.823Z,94562
2018-03-28T04:39:49.892Z,94576
2018-03-28T04:42:17.935Z,94567
2018-03-28T04:44:45.998Z,94561
2018-03-28T04:47:14.882Z,94563
2018-03-28T04:49:42.970Z,94570
2018-03-28T04:52:11.119Z,94563
2018-03-28T04:54:39.149Z,94568
2018-03-28T04:57:08.018Z,94569
2018-03-28T04:59:36.069Z,94565
2018-03-28T05:02:04.115Z,94558
2018-03-28T05:04:32.934Z,94574
2018-03-28T05:07:01.004Z,94565
2018-03-28T05:09:29.803Z,94564
2018-03-28T05:11:57.841Z,94573
2018-03-28T05:14:26.674Z,94564
2018-03-28T05:16:54.706Z,94573
2018-03-28T05:19:24.650Z,94572
2018-03-28T05:21:54.603Z,94574
2018-03-28T05:24:23.817Z,94575
2018-03-28T05:26:52.306Z,94560
2018-03-28T05:29:20.357Z,94559
2018-03-28T05:31:48.409Z,94571
2018-03-28T05:34:17.250Z,94565
2018-03-28T05:36:45.299Z,94569
2018-03-28T05:39:13.358Z,94566
2018-03-28T05:41:41.410Z,94562
2018-03-28T05:44:10.233Z,94564
2018-03-28T05:46:38.286Z,94564
2018-03-28T05:49:07.106Z,94571
2018-03-28T05:51:35.190Z,94577
2018-03-28T05:54:03.237Z,94570
2018-03-28T05:56:32.086Z,94558
2018-03-28T05:59:00.153Z,94569
2018-03-28T06:01:28.237Z,94566
2018-03-28T06:03:56.313Z,94568
2018-03-28T06:06:24.359Z,94568
2018-03-28T06:08:52.406Z,94561
2018-03-28T06:11:21.230Z,94568
2018-03-28T06:13:49.342Z,94576
2018-03-28T06:16:17.404Z,94577
2018-03-28T06:18:46.195Z,94569
2018-03-28T06:21:14.255Z,94578
2018-03-28T06:23:42.302Z,94568
2018-03-28T06:26:11.129Z,94573
2018-03-28T06:28:39.182Z,94587
2018-03-28T06:31:07.252Z,94581
2018-03-28T06:33:35.306Z,94576
2018-03-28T06:36:04.162Z,94571
2018-03-28T06:38:32.218Z,94569
2018-03-28T06:41:00.322Z,94569
2018-03-28T06:43:28.376Z,94562
2018-03-28T06:45:56.425Z,94568
2018-03-28T06:48:26.312Z,94559
2018-03-28T06:50:54.682Z,94566
2018-03-28T06:53:22.750Z,94567
2018-03-28T06:55:50.817Z,94571
2018-03-28T06:58:18.903Z,94571
2018-03-28T07:00:46.964Z,94578
2018-03-28T07:03:15.018Z,94572
2018-03-28T07:05:43.071Z,94563
2018-03-28T07:08:11.922Z,94559
2018-03-28T07:10:39.998Z,94569
2018-03-28T07:13:08.052Z,94557
2018-03-28T07:15:36.614Z,94555
2018-03-28T07:18:05.434Z,94551
2018-03-28T07:20:33.496Z,94564
2018-03-28T07:23:01.616Z,94562
2018-03-28T07:25:29.676Z,94557
2018-03-28T07:27:57.732Z,94567
2018-03-28T07:30:25.789Z,94564
2018-03-28T07:32:55.714Z,94569
2018-03-28T07:35:23.797Z,94557
2018-03-28T07:37:52.322Z,94570
2018-03-28T07:40:20.382Z,94574
2018-03-28T07:42:48.466Z,94558
2018-03-28T07:45:16.513Z,94561
2018-03-28T07:47:44.626Z,94567
2018-03-28T07:50:12.689Z,94559
2018-03-28T07:52:40.745Z,94569
2018-03-28T07:55:08.798Z,94560
2018-03-28T07:57:37.614Z,94570
2018-03-28T08:00:05.685Z,94562
2018-03-28T08:02:33.794Z,94565
2018-03-28T08:05:01.854Z,94571
2018-03-28T08:07:29.906Z,94569
2018-03-28T08:09:58.031Z,94556
2018-03-28T08:12:26.302Z,94562
2018-03-28T08:14:55.474Z,94552
2018-03-28T08:17:23.533Z,94558
2018-03-28T08:19:52.178Z,94545
2018-03-28T08:22:20.358Z,94553
2018-03-28T08:24:48.411Z,94549
2018-03-28T08:27:16.468Z,94557
2018-03-28T08:29:44.519Z,94555
2018-03-28T08:32:13.342Z,94553
2018-03-28T08:34:41.398Z,94549
2018-03-28T08:37:10.230Z,94543
2018-03-28T08:39:38.290Z,94542
2018-03-28T08:42:06.365Z,94525
2018-03-28T08:44:34.490Z,94548
2018-03-28T08:47:03.331Z,94537
2018-03-28T08:49:32.196Z,94538
2018-03-28T08:52:01.043Z,94545
2018-03-28T08:54:29.126Z,94549
2018-03-28T08:56:57.324Z,94540
2018-03-28T08:59:26.127Z,94532
2018-03-28T09:01:54.321Z,94532
2018-03-28T09:04:22.349Z,94533
2018-03-28T09:06:50.444Z,94546
2018-03-28T09:09:18.496Z,94522
2018-03-28T09:11:46.565Z,94516
2018-03-28T09:14:14.664Z,94524
2018-03-28T09:16:42.747Z,94532
2018-03-28T09:19:10.831Z,94523
2018-03-28T09:21:38.997Z,94519
2018-03-28T09:24:07.070Z,94508
2018-03-28T09:26:35.138Z,94497
2018-03-28T09:29:03.205Z,94500
2018-03-28T09:31:31.272Z,94494
2018-03-28T09:33:59.341Z,94502
2018-03-28T09:36:27.401Z,94495
2018-03-28T09:38:56.457Z,94516
2018-03-28T09:41:24.625Z,94498
2018-03-28T09:43:52.706Z,94486
2018-03-28T09:46:20.886Z,94487
2018-03-28T09:48:48.951Z,94497
2018-03-28T09:51:17.835Z,94491
2018-03-28T09:53:45.890Z,94479
2018-03-28T09:56:14.005Z,94495
2018-03-28T09:58:42.061Z,94498
2018-03-28T10:01:10.330Z,94496
2018-03-28T10:03:44.035Z,94524
2018-03-28T10:06:12.091Z,94493
2018-03-28T10:08:40.930Z,94476
2018-03-28T10:11:08.993Z,94472
2018-03-28T10:13:37.102Z,94481
2018-03-28T10:16:05.159Z,94482
2018-03-28T10:18:33.226Z,94476
2018-03-28T10:21:01.324Z,94479
2018-03-28T10:23:29.392Z,94490
2018-03-28T10:25:57.438Z,94476
2018-03-28T10:28:26.682Z,94473
2018-03-28T10:30:54.739Z,94465
2018-03-28T10:33:22.810Z,94467
2018-03-28T10:35:50.924Z,94461
2018-03-28T10:38:18.994Z,94463
2018-03-28T10:40:47.166Z,94452
2018-03-28T10:43:15.243Z,94461
2018-03-28T10:45:43.300Z,94469
2018-03-28T10:48:11.370Z,94458
2018-03-28T10:50:39.426Z,94452
2018-03-28T10:53:07.950Z,94450
2018-03-28T10:55:36.028Z,94449
2018-03-28T10:58:04.662Z,94463
2018-03-28T11:00:33.502Z,94432
2018-03-28T11:03:01.578Z,94446
2018-03-28T11:05:29.630Z,94449
2018-03-28T11:07:58.486Z,94446
2018-03-28T11:10:27.987Z,94411
2018-03-28T11:12:57.322Z,94438
2018-03-28T11:15:25.330Z,94437
2018-03-28T11:17:53.418Z,94418
2018-03-28T11:20:22.234Z,94417
2018-03-28T11:22:50.299Z,94413
2018-03-28T11:25:18.362Z,94413
2018-03-28T11:27:46.414Z,94416
2018-03-28T11:30:14.471Z,94422
2018-03-28T11:32:42.538Z,94419
2018-03-28T11:35:11.358Z,94411
2018-03-28T11:37:39.422Z,94424
2018-03-28T11:40:07.474Z,94424
2018-03-28T11:42:36.313Z,94432
2018-03-28T11:45:04.409Z,94420
2018-03-28T11:47:32.594Z,94410
2018-03-28T11:50:00.663Z,94404
2018-03-28T11:52:28.838Z,94391
2018-03-28T11:54:57.541Z,94406
2018-03-28T11:57:26.501Z,94379
2018-03-28T11:59:54.568Z,94404
2018-03-28T12:02:22.629Z,94391
2018-03-28T12:04:52.615Z,94407
2018-03-28T12:07:20.787Z,94395
2018-03-28T12:09:48.837Z,94381
2018-03-28T12:12:17.642Z,94384
2018-03-28T12:14:45.731Z,94377
2018-03-28T12:17:13.788Z,94387
2018-03-28T12:19:41.854Z,94373
2018-03-28T12:22:09.955Z,94382
2018-03-28T12:24:38.127Z,94368
2018-03-28T12:27:06.269Z,94368
2018-03-28T12:29:35.093Z,94372
2018-03-28T12:32:04.008Z,94362
2018-03-28T12:34:32.064Z,94362
2018-03-28T12:37:00.127Z,94369
2018-03-28T12:39:28.190Z,94360
2018-03-28T12:41:56.260Z,94357
2018-03-28T12:44:24.385Z,94355
2018-03-28T12:46:52.433Z,94342
2018-03-28T12:49:20.498Z,94355
2018-03-28T12:51:48.549Z,94351
2018-03-28T12:54:17.383Z,94358
2018-03-28T12:56:45.439Z,94344
2018-03-28T12:59:13.511Z,94336
2018-03-28T13:01:41.634Z,94335
2018-03-28T13:04:09.797Z,94341
2018-03-28T13:06:37.905Z,94336
2018-03-28T13:09:06.062Z,94324
2018-03-28T13:11:34.137Z,94320
2018-03-28T13:14:02.226Z,94320
2018-03-28T13:16:30.281Z,94315
2018-03-28T13:18:58.366Z,94333
2018-03-28T13:21:26.447Z,94317
2018-03-28T13:23:54.505Z,94323
2018-03-28T13:26:22.565Z,94326
2018-03-28T13:28:50.636Z,94337
2018-03-28T13:31:18.689Z,94306
2018-03-28T13:33:47.514Z,94312
2018-03-28T13:36:15.843Z,94306
2018-03-28T13:38:44.011Z,94315
2018-03-28T13:41:12.070Z,94308
2018-03-28T13:43:40.254Z,94292
2018-03-28T13:46:08.334Z,94294
2018-03-28T13:48:36.406Z,94291
2018-03-28T13:51:04.477Z,94306
2018-03-28T13:53:32.541Z,94270
2018-03-28T13:56:00.958Z,94276
2018-03-28T13:58:29.096Z,94259
2018-03-28T14:00:57.174Z,94271
2018-03-28T14:03:25.298Z,94264
2018-03-28T14:05:54.183Z,94259
2018-03-28T14:08:22.259Z,94249
2018-03-28T14:10:50.313Z,94253
2018-03-28T14:13:18.426Z,94257
2018-03-28T14:15:46.482Z,94242
2018-03-28T14:18:14.563Z,94240
2018-03-28T14:20:42.630Z,94245
2018-03-28T14:23:11.523Z,94233
2018-03-28T14:25:39.617Z,94229
2018-03-28T14:28:07.693Z,94231
2018-03-28T14:30:35.773Z,94209
2018-03-28T14:33:03.957Z,94216
2018-03-28T14:35:32.052Z,94210
2018-03-28T14:38:00.194Z,94209
2018-03-28T14:40:29.214Z,94202
2018-03-28T14:42:59.927Z,94214
2018-03-28T14:45:28.930Z,94188
2018-03-28T14:47:56.992Z,94189
2018-03-28T14:50:25.080Z,94190
2018-03-28T14:52:53.194Z,94193
2018-03-28T14:55:21.210Z,94190
2018-03-28T14:57:49.343Z,94172
2018-03-28T15:00:17.400Z,94170
2018-03-28T15:02:45.472Z,94178
2018-03-28T15:05:14.362Z,94172
2018-03-28T15:07:43.137Z,94169
2018-03-28T15:10:11.984Z,94167
2018-03-28T15:12:40.852Z,94168
2018-03-28T15:15:09.018Z,94156
2018-03-28T15:17:37.850Z,94160
2018-03-28T15:20:06.682Z,94156
2018-03-28T15:22:34.815Z,94164
2018-03-28T15:25:03.692Z,94157
2018-03-28T15:27:31.758Z,94151
2018-03-28T15:30:00.140Z,94147
2018-03-28T15:32:30.738Z,94146
2018-03-28T15:34:59.271Z,94149
2018-03-28T15:37:27.430Z,94139
2018-03-28T15:39:55.554Z,94147
2018-03-28T15:42:24.394Z,94146
2018-03-28T15:44:52.505Z,94136
2018-03-28T15:47:20.563Z,94146
2018-03-28T15:49:49.030Z,94139
2018-03-28T15:52:17.332Z,94140
2018-03-28T15:54:45.406Z,94139
2018-03-28T15:57:13.470Z,94142
2018-03-28T15:59:42.723Z,94139
2018-03-28T16:02:12.179Z,94138
2018-03-28T16:04:40.258Z,94130
2018-03-28T16:07:08.342Z,94135
2018-03-28T16:09:36.645Z,94138
2018-03-28T16:12:04.722Z,94131
2018-03-28T16:14:33.307Z,94126
2018-03-28T16:17:01.366Z,94126
2018-03-28T16:19:30.359Z,94128
2018-03-28T16:21:59.567Z,94114
2018-03-28T16:24:27.737Z,94111
2018-03-28T16:26:55.830Z,94111
2018-03-28T16:29:24.000Z,94110
2018-03-28T16:31:53.175Z,94109
2018-03-28T16:34:21.287Z,94119
2018-03-28T16:36:50.285Z,94109
2018-03-28T16:39:18.343Z,94105
2018-03-28T16:41:46.897Z,94106
2018-03-28T16:44:14.975Z,94111
2018-03-28T16:46:43.951Z,94087
2018-03-28T16:49:12.874Z,94099
2018-03-28T16:51:41.093Z,94081
2018-03-28T16:54:09.150Z,94083
2018-03-28T16:56:37.214Z,94084
2018-03-28T16:59:05.280Z,94082
2018-03-28T17:01:34.377Z,94081
2018-03-28T17:04:02.387Z,94079
2018-03-28T17:06:30.486Z,94074
2018-03-28T17:08:58.911Z,94076
2018-03-28T17:11:26.950Z,94066
2018-03-28T17:13:55.831Z,94067
2018-03-28T17:16:24.666Z,94081
2018-03-28T17:18:52.869Z,94073
2018-03-28T17:21:21.090Z,94076
2018-03-28T17:23:49.150Z,94060
2018-03-28T17:26:17.463Z,94076
2018-03-28T17:28:45.509Z,94069
2018-03-28T17:31:13.972Z,94075
2018-03-28T17:33:42.054Z,94073
2018-03-28T17:36:10.130Z,94073
2018-03-28T17:38:38.602Z,94066
2018-03-28T17:41:07.022Z,94073
2018-03-28T17:43:35.105Z,94062
2018-03-28T17:46:03.922Z,94067
2018-03-28T17:48:32.749Z,94045
2018-03-28T17:51:00.982Z,94074
2018-03-28T17:53:31.591Z,94043
2018-03-28T17:56:00.378Z,94058
2018-03-28T17:58:28.464Z,94051
2018-03-28T18:00:56.525Z,94050
2018-03-28T18:03:24.857Z,94050
2018-03-28T18:05:53.689Z,94051
2018-03-28T18:08:21.915Z,94060
2018-03-28T18:10:50.745Z,94062
2018-03-28T18:13:18.926Z,94054
2018-03-28T18:15:46.962Z,94058
2018-03-28T18:18:15.030Z,94054
2018-03-28T18:20:43.130Z,94049
2018-03-28T18:23:11.960Z,94056
2018-03-28T18:25:40.006Z,94054
2018-03-28T18:28:09.257Z,94047
2018-03-28T18:30:37.317Z,94044
2018-03-28T18:33:05.390Z,94049
2018-03-28T18:35:33.450Z,94035
2018-03-28T18:38:01.562Z,94038
2018-03-28T18:40:30.788Z,94043
2018-03-28T18:42:58.995Z,94041
2018-03-28T18:45:27.173Z,94038
2018-03-28T18:47:55.380Z,94047
2018-03-28T18:50:23.432Z,94036
2018-03-28T18:52:52.658Z,94040
2018-03-28T18:55:20.749Z,94046
2018-03-28T18:57:48.826Z,94028
2018-03-28T19:00:16.890Z,94026
2018-03-28T19:02:44.978Z,94031
2018-03-28T19:05:13.043Z,94036
2018-03-28T19:07:42.378Z,94035
2018-03-28T19:10:10.575Z,94017
2018-03-28T19:12:38.637Z,94032
2018-03-28T19:15:06.703Z,94031
2018-03-28T19:17:34.782Z,94016
2018-03-28T19:20:02.886Z,94016
2018-03-28T19:22:33.248Z,94031
2018-03-28T19:25:01.302Z,94025
2018-03-28T19:27:31.512Z,94011
2018-03-28T19:29:59.526Z,94017
2018-03-28T19:32:27.584Z,94025
2018-03-28T19:34:56.433Z,94024
2018-03-28T19:37:24.702Z,94030
2018-03-28T19:39:52.765Z,94018
2018-03-28T19:42:20.815Z,94018
2018-03-28T19:44:49.158Z,94029
2018-03-28T19:47:17.277Z,94011
2018-03-28T19:49:45.387Z,94018
2018-03-28T19:52:13.470Z,94016
2018-03-28T19:54:41.664Z,94018
2018-03-28T19:57:09.709Z,94017
2018-03-28T19:59:37.808Z,94015
2018-03-28T20:02:05.883Z,94011
2018-03-28T20:04:35.124Z,94011
2018-03-28T20:07:03.975Z,94012
2018-03-28T20:09:32.046Z,94022
2018-03-28T20:12:00.345Z,94023
2018-03-28T20:14:29.032Z,94003
2018-03-28T20:16:57.098Z,94008
2018-03-28T20:19:25.169Z,94008
2018-03-28T20:21:53.258Z,94006
2018-03-28T20:24:21.369Z,93997
2018-03-28T20:26:50.202Z,93988
2018-03-28T20:29:18.265Z,93982
2018-03-28T20:31:46.888Z,93995
2018-03-28T20:34:14.999Z,93987
2018-03-28T20:36:43.850Z,93983
2018-03-28T20:39:11.925Z,93992
2018-03-28T20:41:40.063Z,93995
2018-03-28T20:44:08.981Z,93982
2018-03-28T20:46:37.154Z,93979
2018-03-28T20:49:05.260Z,93992
2018-03-28T20:51:33.499Z,93995
2018-03-28T20:54:03.822Z,94000
2018-03-28T20:56:32.173Z,94000
2018-03-28T20:59:00.328Z,93999
2018-03-28T21:01:28.850Z,93993
2018-03-28T21:03:57.785Z,93999
2018-03-28T21:06:25.829Z,93996
2018-03-28T21:08:54.714Z,93992
2018-03-28T21:11:24.394Z,93996
2018-03-28T21:13:52.478Z,93998
2018-03-28T21:16:20.599Z,94002
2018-03-28T21:18:48.674Z,94005
2018-03-28T21:21:17.654Z,93989
2018-03-28T21:23:45.868Z,93995
2018-03-28T21:26:13.919Z,93998
2018-03-28T21:28:42.737Z,94007
2018-03-28T21:31:10.923Z,94005
2018-03-28T21:33:38.987Z,94008
2018-03-28T21:36:07.049Z,94000
2018-03-28T21:38:35.873Z,94003
2018-03-28T21:41:04.421Z,94002
2018-03-28T21:43:32.705Z,94001
2018-03-28T21:46:02.637Z,94012
2018-03-28T21:48:32.582Z,94024
2018-03-28T21:51:01.220Z,94024
2018-03-28T21:53:30.780Z,94023
2018-03-28T21:55:58.970Z,94034
2018-03-28T21:58:27.022Z,94028
2018-03-28T22:00:55.077Z,94032
2018-03-28T22:03:24.242Z,94040
2018-03-28T22:05:52.479Z,94045
2018-03-28T22:08:20.533Z,94034
2018-03-28T22:10:49.375Z,94038
2018-03-28T22:13:17.445Z,94046
2018-03-28T22:15:45.537Z,94040
2018-03-28T22:18:13.714Z,94036
2018-03-28T22:20:41.765Z,94028
2018-03-28T22:23:09.835Z,94035
2018-03-28T22:25:37.873Z,94025
2018-03-28T22:28:06.032Z,94035
2018-03-28T22:30:34.094Z,94023
2018-03-28T22:33:03.277Z,94030
2018-03-28T22:35:31.322Z,94035
2018-03-28T22:38:00.149Z,94037
2018-03-28T22:40:28.553Z,94054
2018-03-28T22:42:56.613Z,94040
2018-03-28T22:45:24.665Z,94040
2018-03-28T22:47:52.832Z,94040
2018-03-28T22:50:20.879Z,94043
2018-03-28T22:52:48.949Z,94044
2018-03-28T22:55:16.991Z,94050
2018-03-28T22:57:45.055Z,94041
2018-03-28T23:00:13.099Z,94043
2018-03-28T23:02:41.962Z,94053
2018-03-28T23:05:10.034Z,94047
2018-03-28T23:07:38.096Z,94053
2018-03-28T23:10:06.156Z,94052
2018-03-28T23:12:34.227Z,94065
2018-03-28T23:15:02.325Z,94061
2018-03-28T23:17:30.385Z,94072
2018-03-28T23:19:58.460Z,94060
2018-03-28T23:22:38.342Z,94063
2018-03-28T23:25:06.398Z,94067
2018-03-28T23:27:34.556Z,94060
2018-03-28T23:30:03.717Z,94067
2018-03-28T23:32:32.578Z,94061
2018-03-28T23:35:00.647Z,94079
2018-03-28T23:37:28.702Z,94067
2018-03-28T23:39:56.774Z,94074
2018-03-28T23:42:24.878Z,94074
2018-03-28T23:44:52.958Z,94079
2018-03-28T23:47:21.107Z,94084
2018-03-28T23:49:49.162Z,94071
2018-03-28T23:52:18.012Z,94076
2018-03-28T23:54:46.070Z,94084
2018-03-28T23:57:14.154Z,94082
2018-03-28T23:59:42.218Z,94081
